sensor_id;sensor_type;location;lat;lon;timestamp;P1;durP1;ratioP1;P2;durP2;ratioP2
61696;SDS011;47610;52.252;20.922;2022-11-02T00:02:21;30.00;;;16.80;;
61696;SDS011;47610;52.252;20.922;2022-11-02T00:07:44;36.70;;;18.90;;
61696;SDS011;47610;52.252;20.922;2022-11-02T00:13:07;33.80;;;17.40;;
61696;SDS011;47610;52.252;20.922;2022-11-02T00:18:30;37.30;;;17.40;;
61696;SDS011;47610;52.252;20.922;2022-11-02T00:23:55;36.10;;;17.60;;
61696;SDS011;47610;52.252;20.922;2022-11-02T00:29:19;32.30;;;17.00;;
61696;SDS011;47610;52.252;20.922;2022-11-02T00:34:42;35.80;;;18.60;;
61696;SDS011;47610;52.252;20.922;2022-11-02T00:40:07;36.10;;;18.70;;
61696;SDS011;47610;52.252;20.922;2022-11-02T00:45:36;41.70;;;17.60;;
61696;SDS011;47610;52.252;20.922;2022-11-02T00:50:59;38.20;;;19.30;;
61696;SDS011;47610;52.252;20.922;2022-11-02T00:56:22;34.70;;;18.30;;
61696;SDS011;47610;52.252;20.922;2022-11-02T01:01:48;40.80;;;21.10;;
61696;SDS011;47610;52.252;20.922;2022-11-02T01:07:11;36.40;;;18.80;;
61696;SDS011;47610;52.252;20.922;2022-11-02T01:12:34;34.00;;;20.40;;
61696;SDS011;47610;52.252;20.922;2022-11-02T01:17:58;36.30;;;18.60;;
61696;SDS011;47610;52.252;20.922;2022-11-02T01:23:21;38.90;;;19.40;;
61696;SDS011;47610;52.252;20.922;2022-11-02T01:28:44;32.70;;;18.30;;
61696;SDS011;47610;52.252;20.922;2022-11-02T01:34:06;40.90;;;21.50;;
61696;SDS011;47610;52.252;20.922;2022-11-02T01:39:30;38.80;;;20.20;;
61696;SDS011;47610;52.252;20.922;2022-11-02T01:44:53;42.50;;;21.20;;
61696;SDS011;47610;52.252;20.922;2022-11-02T01:50:21;43.30;;;20.40;;
61696;SDS011;47610;52.252;20.922;2022-11-02T01:55:48;45.20;;;21.20;;
61696;SDS011;47610;52.252;20.922;2022-11-02T02:01:12;45.80;;;22.00;;
61696;SDS011;47610;52.252;20.922;2022-11-02T02:06:35;44.50;;;20.80;;
61696;SDS011;47610;52.252;20.922;2022-11-02T02:12:01;46.90;;;21.50;;
61696;SDS011;47610;52.252;20.922;2022-11-02T02:17:30;47.50;;;22.20;;
61696;SDS011;47610;52.252;20.922;2022-11-02T02:28:55;49.50;;;21.30;;
61696;SDS011;47610;52.252;20.922;2022-11-02T02:34:22;56.30;;;23.50;;
61696;SDS011;47610;52.252;20.922;2022-11-02T02:39:50;59.60;;;25.30;;
61696;SDS011;47610;52.252;20.922;2022-11-02T02:45:21;61.30;;;26.10;;
61696;SDS011;47610;52.252;20.922;2022-11-02T02:50:50;63.90;;;24.50;;
61696;SDS011;47610;52.252;20.922;2022-11-02T02:56:16;68.10;;;27.20;;
61696;SDS011;47610;52.252;20.922;2022-11-02T03:01:47;57.30;;;25.40;;
61696;SDS011;47610;52.252;20.922;2022-11-02T03:16:06;65.50;;;27.10;;
61696;SDS011;47610;52.252;20.922;2022-11-02T03:27:05;66.30;;;27.30;;
61696;SDS011;47610;52.252;20.922;2022-11-02T03:32:38;70.20;;;28.20;;
61696;SDS011;47610;52.252;20.922;2022-11-02T03:38:10;66.70;;;26.20;;
61696;SDS011;47610;52.252;20.922;2022-11-02T03:43:38;60.30;;;24.80;;
61696;SDS011;47610;52.252;20.922;2022-11-02T03:49:03;72.80;;;29.30;;
61696;SDS011;47610;52.252;20.922;2022-11-02T03:54:38;74.80;;;29.20;;
61696;SDS011;47610;52.252;20.922;2022-11-02T04:00:09;73.40;;;29.90;;
61696;SDS011;47610;52.252;20.922;2022-11-02T04:05:41;86.40;;;31.70;;
61696;SDS011;47610;52.252;20.922;2022-11-02T04:11:04;79.50;;;31.10;;
61696;SDS011;47610;52.252;20.922;2022-11-02T04:16:27;85.70;;;31.00;;
61696;SDS011;47610;52.252;20.922;2022-11-02T04:21:50;87.60;;;32.00;;
61696;SDS011;47610;52.252;20.922;2022-11-02T04:27:13;92.90;;;33.00;;
61696;SDS011;47610;52.252;20.922;2022-11-02T04:32:38;99.90;;;34.30;;
61696;SDS011;47610;52.252;20.922;2022-11-02T04:38:03;86.20;;;35.20;;
61696;SDS011;47610;52.252;20.922;2022-11-02T04:43:25;99.70;;;34.40;;
61696;SDS011;47610;52.252;20.922;2022-11-02T04:48:48;102.70;;;34.30;;
61696;SDS011;47610;52.252;20.922;2022-11-02T04:54:12;97.30;;;34.80;;
61696;SDS011;47610;52.252;20.922;2022-11-02T04:59:34;88.50;;;33.10;;
61696;SDS011;47610;52.252;20.922;2022-11-02T05:04:58;97.20;;;32.20;;
61696;SDS011;47610;52.252;20.922;2022-11-02T05:10:22;92.70;;;33.00;;
61696;SDS011;47610;52.252;20.922;2022-11-02T05:15:47;85.90;;;35.10;;
61696;SDS011;47610;52.252;20.922;2022-11-02T05:21:10;86.50;;;35.20;;
61696;SDS011;47610;52.252;20.922;2022-11-02T05:26:33;72.80;;;34.90;;
61696;SDS011;47610;52.252;20.922;2022-11-02T05:31:57;83.00;;;32.70;;
61696;SDS011;47610;52.252;20.922;2022-11-02T05:37:20;76.80;;;33.70;;
61696;SDS011;47610;52.252;20.922;2022-11-02T05:42:43;86.60;;;33.80;;
61696;SDS011;47610;52.252;20.922;2022-11-02T05:48:05;77.10;;;34.60;;
61696;SDS011;47610;52.252;20.922;2022-11-02T05:53:29;87.90;;;33.70;;
61696;SDS011;47610;52.252;20.922;2022-11-02T05:58:54;78.00;;;33.50;;
61696;SDS011;47610;52.252;20.922;2022-11-02T06:04:17;71.40;;;30.10;;
61696;SDS011;47610;52.252;20.922;2022-11-02T06:09:42;76.40;;;31.70;;
61696;SDS011;47610;52.252;20.922;2022-11-02T06:15:10;63.80;;;29.20;;
61696;SDS011;47610;52.252;20.922;2022-11-02T06:20:35;73.30;;;31.50;;
61696;SDS011;47610;52.252;20.922;2022-11-02T06:25:59;55.10;;;25.70;;
61696;SDS011;47610;52.252;20.922;2022-11-02T06:43:02;59.10;;;25.60;;
61696;SDS011;47610;52.252;20.922;2022-11-02T06:48:27;57.50;;;26.50;;
61696;SDS011;47610;52.252;20.922;2022-11-02T06:53:57;52.60;;;23.80;;
61696;SDS011;47610;52.252;20.922;2022-11-02T06:59:20;49.40;;;23.80;;
61696;SDS011;47610;52.252;20.922;2022-11-02T07:04:44;54.10;;;24.70;;
61696;SDS011;47610;52.252;20.922;2022-11-02T07:10:14;54.70;;;23.80;;
61696;SDS011;47610;52.252;20.922;2022-11-02T07:15:39;45.30;;;22.10;;
61696;SDS011;47610;52.252;20.922;2022-11-02T07:21:10;34.70;;;18.60;;
61696;SDS011;47610;52.252;20.922;2022-11-02T07:26:45;45.00;;;20.90;;
61696;SDS011;47610;52.252;20.922;2022-11-02T07:32:13;39.20;;;20.50;;
61696;SDS011;47610;52.252;20.922;2022-11-02T07:37:39;36.80;;;20.10;;
61696;SDS011;47610;52.252;20.922;2022-11-02T07:43:21;42.80;;;19.80;;
61696;SDS011;47610;52.252;20.922;2022-11-02T07:48:46;36.90;;;19.70;;
61696;SDS011;47610;52.252;20.922;2022-11-02T07:54:23;41.20;;;20.10;;
61696;SDS011;47610;52.252;20.922;2022-11-02T08:00:00;43.20;;;21.40;;
61696;SDS011;47610;52.252;20.922;2022-11-02T08:05:31;38.60;;;19.30;;
61696;SDS011;47610;52.252;20.922;2022-11-02T08:11:11;38.50;;;19.90;;
61696;SDS011;47610;52.252;20.922;2022-11-02T08:16:52;40.40;;;19.90;;
61696;SDS011;47610;52.252;20.922;2022-11-02T08:28:27;29.70;;;16.50;;
61696;SDS011;47610;52.252;20.922;2022-11-02T08:34:22;36.00;;;19.50;;
61696;SDS011;47610;52.252;20.922;2022-11-02T08:39:47;36.90;;;19.50;;
61696;SDS011;47610;52.252;20.922;2022-11-02T08:45:12;34.90;;;19.40;;
61696;SDS011;47610;52.252;20.922;2022-11-02T08:50:52;37.10;;;20.60;;
61696;SDS011;47610;52.252;20.922;2022-11-02T08:56:20;35.30;;;19.20;;
61696;SDS011;47610;52.252;20.922;2022-11-02T09:01:42;30.50;;;19.20;;
61696;SDS011;47610;52.252;20.922;2022-11-02T09:07:15;34.50;;;19.50;;
61696;SDS011;47610;52.252;20.922;2022-11-02T09:12:38;36.30;;;19.90;;
61696;SDS011;47610;52.252;20.922;2022-11-02T09:18:03;31.00;;;18.60;;
61696;SDS011;47610;52.252;20.922;2022-11-02T09:23:29;30.00;;;19.10;;
61696;SDS011;47610;52.252;20.922;2022-11-02T09:29:17;33.90;;;19.80;;
61696;SDS011;47610;52.252;20.922;2022-11-02T09:34:40;27.50;;;16.90;;
61696;SDS011;47610;52.252;20.922;2022-11-02T09:40:04;26.30;;;14.90;;
61696;SDS011;47610;52.252;20.922;2022-11-02T09:45:52;27.10;;;16.00;;
61696;SDS011;47610;52.252;20.922;2022-11-02T09:51:36;28.70;;;16.40;;
61696;SDS011;47610;52.252;20.922;2022-11-02T09:57:03;27.40;;;16.50;;
61696;SDS011;47610;52.252;20.922;2022-11-02T10:02:49;28.20;;;15.30;;
61696;SDS011;47610;52.252;20.922;2022-11-02T10:08:27;29.30;;;15.00;;
61696;SDS011;47610;52.252;20.922;2022-11-02T10:14:05;28.20;;;15.30;;
61696;SDS011;47610;52.252;20.922;2022-11-02T10:19:53;30.00;;;16.00;;
61696;SDS011;47610;52.252;20.922;2022-11-02T10:25:33;27.70;;;15.40;;
61696;SDS011;47610;52.252;20.922;2022-11-02T10:30:57;26.40;;;15.50;;
61696;SDS011;47610;52.252;20.922;2022-11-02T10:36:28;24.20;;;14.40;;
61696;SDS011;47610;52.252;20.922;2022-11-02T10:42:09;24.80;;;14.10;;
61696;SDS011;47610;52.252;20.922;2022-11-02T10:47:51;26.80;;;15.20;;
61696;SDS011;47610;52.252;20.922;2022-11-02T10:53:40;29.60;;;16.00;;
61696;SDS011;47610;52.252;20.922;2022-11-02T10:59:12;28.30;;;13.40;;
61696;SDS011;47610;52.252;20.922;2022-11-02T11:04:51;27.30;;;16.00;;
61696;SDS011;47610;52.252;20.922;2022-11-02T11:10:42;24.80;;;14.50;;
61696;SDS011;47610;52.252;20.922;2022-11-02T11:16:11;21.40;;;13.50;;
61696;SDS011;47610;52.252;20.922;2022-11-02T11:21:39;22.10;;;12.90;;
61696;SDS011;47610;52.252;20.922;2022-11-02T11:27:05;21.60;;;13.20;;
61696;SDS011;47610;52.252;20.922;2022-11-02T11:38:37;18.50;;;10.60;;
61696;SDS011;47610;52.252;20.922;2022-11-02T11:44:29;16.70;;;11.20;;
61696;SDS011;47610;52.252;20.922;2022-11-02T11:49:55;19.20;;;12.20;;
61696;SDS011;47610;52.252;20.922;2022-11-02T11:55:24;24.20;;;12.30;;
61696;SDS011;47610;52.252;20.922;2022-11-02T12:01:15;17.20;;;12.20;;
61696;SDS011;47610;52.252;20.922;2022-11-02T12:06:40;18.90;;;12.90;;
61696;SDS011;47610;52.252;20.922;2022-11-02T12:12:12;18.70;;;12.80;;
61696;SDS011;47610;52.252;20.922;2022-11-02T12:17:49;19.50;;;12.70;;
61696;SDS011;47610;52.252;20.922;2022-11-02T12:23:31;19.50;;;13.00;;
61696;SDS011;47610;52.252;20.922;2022-11-02T12:35:33;20.40;;;11.80;;
61696;SDS011;47610;52.252;20.922;2022-11-02T12:41:15;19.80;;;12.30;;
61696;SDS011;47610;52.252;20.922;2022-11-02T12:46:53;21.60;;;12.40;;
61696;SDS011;47610;52.252;20.922;2022-11-02T12:52:39;15.80;;;10.90;;
61696;SDS011;47610;52.252;20.922;2022-11-02T12:58:12;16.90;;;11.40;;
61696;SDS011;47610;52.252;20.922;2022-11-02T13:09:32;19.30;;;10.90;;
61696;SDS011;47610;52.252;20.922;2022-11-02T13:15:00;19.30;;;11.60;;
61696;SDS011;47610;52.252;20.922;2022-11-02T13:20:38;19.00;;;11.00;;
61696;SDS011;47610;52.252;20.922;2022-11-02T13:26:12;18.50;;;11.30;;
61696;SDS011;47610;52.252;20.922;2022-11-02T13:31:59;18.20;;;10.60;;
61696;SDS011;47610;52.252;20.922;2022-11-02T13:37:39;17.30;;;11.40;;
61696;SDS011;47610;52.252;20.922;2022-11-02T13:43:32;16.30;;;10.80;;
61696;SDS011;47610;52.252;20.922;2022-11-02T13:49:14;21.70;;;12.60;;
61696;SDS011;47610;52.252;20.922;2022-11-02T13:54:43;18.80;;;11.00;;
61696;SDS011;47610;52.252;20.922;2022-11-02T14:05:59;21.80;;;12.90;;
61696;SDS011;47610;52.252;20.922;2022-11-02T14:11:35;20.00;;;12.70;;
61696;SDS011;47610;52.252;20.922;2022-11-02T14:17:13;19.50;;;13.00;;
61696;SDS011;47610;52.252;20.922;2022-11-02T14:22:42;18.60;;;12.80;;
61696;SDS011;47610;52.252;20.922;2022-11-02T14:28:42;24.50;;;13.50;;
61696;SDS011;47610;52.252;20.922;2022-11-02T14:34:14;21.40;;;12.50;;
61696;SDS011;47610;52.252;20.922;2022-11-02T14:39:56;23.60;;;13.10;;
61696;SDS011;47610;52.252;20.922;2022-11-02T14:45:36;21.90;;;13.40;;
61696;SDS011;47610;52.252;20.922;2022-11-02T14:51:15;21.90;;;13.50;;
61696;SDS011;47610;52.252;20.922;2022-11-02T14:57:06;22.70;;;13.90;;
61696;SDS011;47610;52.252;20.922;2022-11-02T15:03:05;22.60;;;13.10;;
61696;SDS011;47610;52.252;20.922;2022-11-02T15:08:57;24.00;;;14.00;;
61696;SDS011;47610;52.252;20.922;2022-11-02T15:26:30;25.10;;;14.90;;
61696;SDS011;47610;52.252;20.922;2022-11-02T15:37:42;22.30;;;14.70;;
61696;SDS011;47610;52.252;20.922;2022-11-02T15:43:08;28.70;;;15.50;;
61696;SDS011;47610;52.252;20.922;2022-11-02T15:48:49;25.10;;;15.20;;
61696;SDS011;47610;52.252;20.922;2022-11-02T16:00:33;29.20;;;16.50;;
61696;SDS011;47610;52.252;20.922;2022-11-02T16:05:56;25.00;;;16.40;;
61696;SDS011;47610;52.252;20.922;2022-11-02T16:11:26;33.00;;;17.60;;
61696;SDS011;47610;52.252;20.922;2022-11-02T16:16:59;31.70;;;16.60;;
61696;SDS011;47610;52.252;20.922;2022-11-02T16:28:22;31.00;;;17.90;;
61696;SDS011;47610;52.252;20.922;2022-11-02T16:33:47;32.70;;;18.20;;
61696;SDS011;47610;52.252;20.922;2022-11-02T16:39:21;27.60;;;17.10;;
61696;SDS011;47610;52.252;20.922;2022-11-02T16:51:02;29.60;;;16.70;;
61696;SDS011;47610;52.252;20.922;2022-11-02T16:56:37;28.50;;;15.70;;
61696;SDS011;47610;52.252;20.922;2022-11-02T17:02:00;27.10;;;15.30;;
61696;SDS011;47610;52.252;20.922;2022-11-02T17:13:26;25.50;;;14.40;;
61696;SDS011;47610;52.252;20.922;2022-11-02T17:18:56;23.70;;;13.60;;
61696;SDS011;47610;52.252;20.922;2022-11-02T17:24:30;32.00;;;20.40;;
61696;SDS011;47610;52.252;20.922;2022-11-02T17:29:53;22.70;;;12.20;;
61696;SDS011;47610;52.252;20.922;2022-11-02T17:35:16;25.20;;;13.00;;
61696;SDS011;47610;52.252;20.922;2022-11-02T17:40:39;22.60;;;12.50;;
61696;SDS011;47610;52.252;20.922;2022-11-02T17:46:02;27.20;;;13.40;;
61696;SDS011;47610;52.252;20.922;2022-11-02T17:56:49;22.80;;;13.20;;
61696;SDS011;47610;52.252;20.922;2022-11-02T18:02:12;29.10;;;13.90;;
61696;SDS011;47610;52.252;20.922;2022-11-02T18:07:36;27.20;;;13.90;;
61696;SDS011;47610;52.252;20.922;2022-11-02T18:12:59;24.40;;;13.30;;
61696;SDS011;47610;52.252;20.922;2022-11-02T18:18:22;21.20;;;11.90;;
61696;SDS011;47610;52.252;20.922;2022-11-02T18:23:45;22.30;;;11.40;;
61696;SDS011;47610;52.252;20.922;2022-11-02T18:29:09;17.40;;;10.50;;
61696;SDS011;47610;52.252;20.922;2022-11-02T18:34:33;20.40;;;10.00;;
61696;SDS011;47610;52.252;20.922;2022-11-02T18:39:56;19.60;;;10.00;;
61696;SDS011;47610;52.252;20.922;2022-11-02T18:45:19;28.50;;;11.10;;
61696;SDS011;47610;52.252;20.922;2022-11-02T18:50:43;26.90;;;10.60;;
61696;SDS011;47610;52.252;20.922;2022-11-02T18:56:07;20.10;;;9.70;;
61696;SDS011;47610;52.252;20.922;2022-11-02T19:01:31;18.70;;;9.30;;
61696;SDS011;47610;52.252;20.922;2022-11-02T19:06:55;21.30;;;8.60;;
61696;SDS011;47610;52.252;20.922;2022-11-02T19:12:19;16.70;;;8.20;;
61696;SDS011;47610;52.252;20.922;2022-11-02T19:17:46;20.40;;;8.90;;
61696;SDS011;47610;52.252;20.922;2022-11-02T19:23:11;23.00;;;10.80;;
61696;SDS011;47610;52.252;20.922;2022-11-02T19:28:36;18.90;;;10.10;;
61696;SDS011;47610;52.252;20.922;2022-11-02T19:34:01;20.40;;;9.10;;
61696;SDS011;47610;52.252;20.922;2022-11-02T19:39:28;22.30;;;9.90;;
61696;SDS011;47610;52.252;20.922;2022-11-02T19:44:51;16.10;;;9.30;;
61696;SDS011;47610;52.252;20.922;2022-11-02T19:50:29;23.20;;;9.50;;
61696;SDS011;47610;52.252;20.922;2022-11-02T19:55:54;19.50;;;8.90;;
61696;SDS011;47610;52.252;20.922;2022-11-02T20:01:17;22.20;;;8.90;;
61696;SDS011;47610;52.252;20.922;2022-11-02T20:06:42;16.00;;;8.30;;
61696;SDS011;47610;52.252;20.922;2022-11-02T20:12:06;21.70;;;10.20;;
61696;SDS011;47610;52.252;20.922;2022-11-02T20:17:29;20.50;;;9.50;;
61696;SDS011;47610;52.252;20.922;2022-11-02T20:22:54;17.30;;;8.40;;
61696;SDS011;47610;52.252;20.922;2022-11-02T20:28:18;16.70;;;8.70;;
61696;SDS011;47610;52.252;20.922;2022-11-02T20:33:43;19.00;;;8.20;;
61696;SDS011;47610;52.252;20.922;2022-11-02T20:39:09;13.60;;;7.50;;
61696;SDS011;47610;52.252;20.922;2022-11-02T20:44:32;17.50;;;7.80;;
61696;SDS011;47610;52.252;20.922;2022-11-02T20:49:57;18.00;;;8.30;;
61696;SDS011;47610;52.252;20.922;2022-11-02T20:55:19;17.60;;;7.90;;
61696;SDS011;47610;52.252;20.922;2022-11-02T21:00:43;18.20;;;9.00;;
61696;SDS011;47610;52.252;20.922;2022-11-02T21:06:08;15.20;;;7.80;;
61696;SDS011;47610;52.252;20.922;2022-11-02T21:11:32;16.50;;;8.50;;
61696;SDS011;47610;52.252;20.922;2022-11-02T21:16:55;15.80;;;8.30;;
61696;SDS011;47610;52.252;20.922;2022-11-02T21:22:23;14.70;;;8.10;;
61696;SDS011;47610;52.252;20.922;2022-11-02T21:27:47;21.10;;;8.20;;
61696;SDS011;47610;52.252;20.922;2022-11-02T21:33:11;15.10;;;6.90;;
61696;SDS011;47610;52.252;20.922;2022-11-02T21:38:34;19.20;;;8.30;;
61696;SDS011;47610;52.252;20.922;2022-11-02T21:43:59;18.40;;;8.10;;
61696;SDS011;47610;52.252;20.922;2022-11-02T21:49:27;23.70;;;8.80;;
61696;SDS011;47610;52.252;20.922;2022-11-02T21:54:53;25.10;;;10.00;;
61696;SDS011;47610;52.252;20.922;2022-11-02T22:06:20;21.00;;;9.60;;
61696;SDS011;47610;52.252;20.922;2022-11-02T22:11:44;20.80;;;9.00;;
61696;SDS011;47610;52.252;20.922;2022-11-02T22:17:08;21.90;;;9.00;;
61696;SDS011;47610;52.252;20.922;2022-11-02T22:22:33;15.40;;;8.30;;
61696;SDS011;47610;52.252;20.922;2022-11-02T22:27:57;18.50;;;8.30;;
61696;SDS011;47610;52.252;20.922;2022-11-02T22:33:20;21.60;;;9.40;;
61696;SDS011;47610;52.252;20.922;2022-11-02T22:38:44;19.20;;;8.20;;
61696;SDS011;47610;52.252;20.922;2022-11-02T22:44:10;15.30;;;8.00;;
61696;SDS011;47610;52.252;20.922;2022-11-02T22:49:36;16.70;;;7.60;;
61696;SDS011;47610;52.252;20.922;2022-11-02T22:54:59;21.40;;;8.70;;
61696;SDS011;47610;52.252;20.922;2022-11-02T23:00:22;15.30;;;7.40;;
61696;SDS011;47610;52.252;20.922;2022-11-02T23:05:46;18.00;;;7.60;;
61696;SDS011;47610;52.252;20.922;2022-11-02T23:11:11;17.60;;;8.20;;
61696;SDS011;47610;52.252;20.922;2022-11-02T23:16:37;15.70;;;7.40;;
61696;SDS011;47610;52.252;20.922;2022-11-02T23:22:03;17.20;;;7.70;;
61696;SDS011;47610;52.252;20.922;2022-11-02T23:32:49;12.80;;;5.60;;
61696;SDS011;47610;52.252;20.922;2022-11-02T23:38:13;14.40;;;5.90;;
61696;SDS011;47610;52.252;20.922;2022-11-02T23:43:37;14.70;;;6.40;;
61696;SDS011;47610;52.252;20.922;2022-11-02T23:49:01;12.40;;;5.40;;
61696;SDS011;47610;52.252;20.922;2022-11-02T23:54:25;13.20;;;5.60;;
61696;SDS011;47610;52.252;20.922;2022-11-02T23:59:52;14.10;;;5.80;;
